CST,Max TemperatureF,Mean TemperatureF,Min TemperatureF,Max Dew PointF,MeanDew PointF,Min DewpointF,Max Humidity, Mean Humidity, Min Humidity, Max Sea Level PressureIn, Mean Sea Level PressureIn, Min Sea Level PressureIn, Max VisibilityMiles, Mean VisibilityMiles, Min VisibilityMiles, Max Wind SpeedMPH, Mean Wind SpeedMPH, Max Gust SpeedMPH,PrecipitationIn, CloudCover, Events, WindDirDegrees
2013-12-1,53,38,22,32,27,19,96,70,44,30.17,30.07,29.89,10,8,4,8,2,9,0.00,0,,17
2013-12-2,61,45,28,38,35,28,100,71,42,29.87,29.67,29.59,10,6,0,16,7,29,0.00,0,Fog,172
2013-12-3,58,43,27,42,35,27,100,78,55,29.64,29.57,29.52,10,3,0,17,6,21,0.00,2,Fog,157
2013-12-4,38,29,20,37,28,10,100,81,62,30.11,29.72,29.56,10,5,0,25,14,30,T,8,Fog,327
2013-12-5,20,17,13,11,5,1,67,59,51,30.47,30.32,30.11,10,10,3,25,14,31,T,2,Snow,335
2013-12-6,16,11,6,0,-2,-4,63,53,42,30.74,30.59,30.47,10,10,10,20,13,24,0.00,5,,353
2013-12-7,20,10,-1,1,-3,-7,79,59,39,30.82,30.68,30.45,10,10,10,13,7,28,0.00,2,,49
2013-12-8,21,14,7,18,13,2,91,68,45,30.42,30.15,30.02,10,4,1,15,6,18,0.09,8,Snow,104
2013-12-9,11,2,-8,4,-4,-11,96,74,52,30.48,30.37,30.23,10,10,7,17,6,21,0.00,0,,283
2013-12-10,31,17,3,18,9,0,76,60,43,30.37,30.28,30.24,10,10,8,13,5,16,0.00,0,,216
2013-12-11,28,15,1,21,6,-5,87,68,49,30.70,30.58,30.27,10,10,10,28,9,33,0.00,1,,335
2013-12-12,40,21,1,21,11,-3,86,67,48,30.61,30.40,30.17,10,10,10,15,4,20,0.00,0,,186
2013-12-13,38,28,18,34,28,14,100,82,63,30.16,29.97,29.87,10,5,2,16,6,21,T,6,,94
2013-12-14,32,24,16,28,19,12,92,80,68,30.27,30.17,29.96,10,6,2,24,12,30,0.00,7,,328
2013-12-15,41,29,17,29,22,14,92,76,59,30.24,30.09,29.99,10,9,6,12,4,14,0.00,3,,193
2013-12-16,48,33,18,32,22,15,100,79,58,30.21,30.06,29.99,10,5,0,20,3,22,0.00,1,Fog,85
2013-12-17,46,34,21,29,18,14,100,66,31,30.31,30.24,30.18,10,7,0,20,5,,0.00,1,Fog,260
2013-12-18,63,41,19,33,27,17,84,58,32,30.21,29.93,29.77,10,10,10,25,11,31,0.00,0,,195
2013-12-19,56,44,32,46,37,29,89,78,66,29.78,29.73,29.66,10,10,5,17,7,21,0.00,5,,332
2013-12-20,35,28,20,31,21,16,92,87,82,30.00,29.90,29.76,7,4,2,23,12,26,T,8,,331
2013-12-21,27,24,21,23,20,16,88,83,77,29.93,29.81,29.69,8,4,0,21,11,26,0.24,7,Fog-Rain-Snow,6
2013-12-22,24,12,-1,21,15,-3,88,78,67,30.44,30.04,29.77,10,6,0,22,12,27,0.04,5,Fog-Snow,331
2013-12-23,10,0,-11,1,-3,-11,87,73,58,30.69,30.63,30.45,10,10,5,17,6,20,T,4,Snow,329
2013-12-24,29,10,-10,25,8,-12,85,72,59,30.66,30.42,30.22,10,9,5,21,8,25,0.00,5,,174
2013-12-25,38,24,10,27,19,8,96,78,59,30.38,30.32,30.24,10,6,0,17,7,20,T,3,Fog,262
2013-12-26,44,26,8,27,15,6,92,71,49,30.36,30.29,30.19,10,6,0,18,6,23,0.00,0,Fog,186
2013-12-27,46,30,14,30,19,10,92,71,49,30.36,30.29,30.17,10,5,0,14,5,17,0.00,0,Fog,188
2013-12-28,51,38,24,33,28,24,78,62,46,30.16,30.00,29.88,10,10,10,30,10,37,0.00,1,,196
2013-12-29,31,19,7,21,2,-4,75,61,46,30.40,30.32,30.05,10,10,9,33,16,40,T,3,,340
2013-12-30,30,18,6,17,5,-6,74,58,42,30.38,30.29,30.19,10,10,10,17,8,21,0.00,3,,197
2013-12-31,53,32,11,28,17,8,92,63,33,30.35,30.20,30.04,10,10,10,24,8,29,0.00,0,,206